^^
Grace C. Lehan Memorial Weather Station Historical Data
Daily Summary for September 22, 2021 Units:  Both    English   Metric
Daily Weekly Monthly Yearly
  High: Low: Average:
Temperature: 40.2 °F /  4.6 °C 20.6 °F /  -6.3 °C 30.5 °F /  -0.8 °C
Dew Point: 36.8 °F /  2.7 °C 13 °F /  -10.6 °C 24.9 °F /  -3.9 °C
Humidity: 96.6% 69% 80%
Wind Speed: 5.7mph /  9.2km/h - 0.5mph /  0.8km/h
Wind Gust: 16mph /  25.7km/h - -
Wind- - SSW
Pressure: 30.40 in /  1029.3 hPa 29.62 in /  1002.9 hPa -
Precipitation: 0.36 in /  9.14 mm    
 
 
Tabular Data for September 22, 2021
Time Temperature Dew Point Pressure Wind Wind Speed Wind Gust Humidity Rainfall Rate (Hourly) solar
00:04 21.1 °F /  -6.1 °C 13.5 °F /  -10.3 °C 30.40in /  1029.3hPa Calm     71.7% 0.00in /  0mm 0 W/m2
00:09 21.1 °F /  -6.1 °C 13.5 °F /  -10.3 °C 30.40in /  1029.3hPa Calm     72% 0.00in /  0mm 0 W/m2
00:14 21.1 °F /  -6.1 °C 13.5 °F /  -10.3 °C 30.40in /  1029.3hPa Calm     72% 0.00in /  0mm 0 W/m2
00:19 21.1 °F /  -6.1 °C 13.5 °F /  -10.3 °C 30.40in /  1029.3hPa Calm     72% 0.00in /  0mm 0 W/m2
00:24 21.1 °F /  -6.1 °C 13.5 °F /  -10.3 °C 30.40in /  1029.3hPa Calm     72% 0.00in /  0mm 0 W/m2
00:29 21.2 °F /  -6 °C 13.6 °F /  -10.2 °C 30.40in /  1029.3hPa Calm     72% 0.00in /  0mm 0 W/m2
00:34 21.2 °F /  -6 °C 13.6 °F /  -10.2 °C 30.39in /  1029hPa Calm     72% 0.00in /  0mm 0 W/m2
00:39 21.2 °F /  -6 °C 13.6 °F /  -10.2 °C 30.40in /  1029.3hPa Calm     72% 0.00in /  0mm 0 W/m2
00:44 21 °F /  -6.1 °C 13.4 °F /  -10.3 °C 30.40in /  1029.3hPa Calm     72% 0.00in /  0mm 0 W/m2
00:49 20.7 °F /  -6.3 °C 13.2 °F /  -10.4 °C 30.40in /  1029.3hPa Calm     72% 0.00in /  0mm 0 W/m2
00:54 20.6 °F /  -6.3 °C 13.2 °F /  -10.4 °C 30.40in /  1029.3hPa Calm     72.5% 0.00in /  0mm 0 W/m2
00:59 20.6 °F /  -6.3 °C 13 °F /  -10.6 °C 30.40in /  1029.3hPa Calm     72% 0.00in /  0mm 0 W/m2
01:04 20.6 °F /  -6.3 °C 13 °F /  -10.6 °C 30.40in /  1029.3hPa Calm     72% 0.00in /  0mm 0 W/m2
01:09 20.7 °F /  -6.3 °C 13.1 °F /  -10.5 °C 30.40in /  1029.3hPa Calm     72% 0.00in /  0mm 0 W/m2
01:14 20.7 °F /  -6.3 °C 13.1 °F /  -10.5 °C 30.40in /  1029.3hPa Calm     72% 0.00in /  0mm 0 W/m2
01:19 20.8 °F /  -6.2 °C 13.2 °F /  -10.4 °C 30.40in /  1029.3hPa Calm     72% 0.00in /  0mm 0 W/m2
01:24 21 °F /  -6.1 °C 13.4 °F /  -10.3 °C 30.39in /  1029hPa Calm     72% 0.00in /  0mm 0 W/m2
01:29 21.1 °F /  -6.1 °C 13.5 °F /  -10.3 °C 30.39in /  1029hPa Calm     72% 0.00in /  0mm 0 W/m2
01:34 21 °F /  -6.1 °C 13.4 °F /  -10.3 °C 30.39in /  1029hPa Calm     72% 0.00in /  0mm 0 W/m2
01:39 20.9 °F /  -6.2 °C 13.3 °F /  -10.4 °C 30.39in /  1029hPa Calm     72% 0.00in /  0mm 0 W/m2
01:44 20.8 °F /  -6.2 °C 13.4 °F /  -10.3 °C 30.39in /  1029hPa Calm     72.5% 0.00in /  0mm 0 W/m2
01:49 20.8 °F /  -6.2 °C 13.5 °F /  -10.3 °C 30.38in /  1028.7hPa Calm     73% 0.00in /  0mm 0 W/m2
01:54 20.9 °F /  -6.2 °C 13.6 °F /  -10.2 °C 30.38in /  1028.7hPa Calm     73% 0.00in /  0mm 0 W/m2
01:59 21 °F /  -6.1 °C 13.7 °F /  -10.2 °C 30.38in /  1028.7hPa Calm     73% 0.00in /  0mm 0 W/m2
02:04 21.1 °F /  -6.1 °C 13.7 °F /  -10.2 °C 30.38in /  1028.7hPa Calm     72.5% 0.00in /  0mm 0 W/m2
02:09 21.3 °F /  -5.9 °C 13.8 °F /  -10.1 °C 30.38in /  1028.7hPa Calm     72.4% 0.00in /  0mm 0 W/m2
02:14 21.4 °F /  -5.9 °C 14.1 °F /  -9.9 °C 30.37in /  1028.3hPa Calm     73% 0.00in /  0mm 0 W/m2
02:19 21.5 °F /  -5.8 °C 14.2 °F /  -9.9 °C 30.38in /  1028.7hPa Calm     73% 0.00in /  0mm 0 W/m2
02:24 21.5 °F /  -5.8 °C 14.2 °F /  -9.9 °C 30.37in /  1028.3hPa Calm     73% 0.00in /  0mm 0 W/m2
02:29 21.6 °F /  -5.8 °C 14.3 °F /  -9.8 °C 30.37in /  1028.3hPa Calm     73% 0.00in /  0mm 0 W/m2
02:34 21.7 °F /  -5.7 °C 14.6 °F /  -9.7 °C 30.37in /  1028.3hPa Calm     73.8% 0.00in /  0mm 0 W/m2
02:39 21.8 °F /  -5.7 °C 14.7 °F /  -9.6 °C 30.37in /  1028.3hPa Calm     73.7% 0.00in /  0mm 0 W/m2
02:44 21.9 °F /  -5.6 °C 14.5 °F /  -9.7 °C 30.37in /  1028.3hPa Calm     73% 0.00in /  0mm 0 W/m2
02:49 21.9 °F /  -5.6 °C 14.9 °F /  -9.5 °C 30.36in /  1028hPa Calm     73.9% 0.00in /  0mm 0 W/m2
02:54 22 °F /  -5.6 °C 15 °F /  -9.4 °C 30.36in /  1028hPa Calm     74% 0.00in /  0mm 0 W/m2
02:59 22 °F /  -5.6 °C 15 °F /  -9.4 °C 30.36in /  1028hPa Calm     74% 0.00in /  0mm 0 W/m2
03:04 22 °F /  -5.6 °C 15 °F /  -9.4 °C 30.35in /  1027.7hPa Calm     74% 0.00in /  0mm 0 W/m2
03:09 22 °F /  -5.6 °C 15 °F /  -9.4 °C 30.35in /  1027.7hPa Calm     74% 0.00in /  0mm 0 W/m2
03:14 22 °F /  -5.6 °C 15 °F /  -9.4 °C 30.35in /  1027.7hPa Calm     74% 0.00in /  0mm 0 W/m2
03:19 22.1 °F /  -5.5 °C 15 °F /  -9.4 °C 30.35in /  1027.7hPa Calm     74% 0.00in /  0mm 0 W/m2
03:24 22.1 °F /  -5.5 °C 15.1 °F /  -9.4 °C 30.35in /  1027.7hPa Calm     74% 0.00in /  0mm 0 W/m2
03:29 22.1 °F /  -5.5 °C 15.1 °F /  -9.4 °C 30.35in /  1027.7hPa Calm     74% 0.00in /  0mm 0 W/m2
03:34 22.1 °F /  -5.5 °C 15.1 °F /  -9.4 °C 30.34in /  1027.3hPa Calm     74% 0.00in /  0mm 0 W/m2
03:39 22.1 °F /  -5.5 °C 15.1 °F /  -9.4 °C 30.33in /  1027hPa Calm     74% 0.00in /  0mm 0 W/m2
03:44 22.1 °F /  -5.5 °C 15.1 °F /  -9.4 °C 30.33in /  1027hPa Calm     74% 0.00in /  0mm 0 W/m2
03:49 22.2 °F /  -5.4 °C 15.2 °F /  -9.3 °C 30.32in /  1026.6hPa Calm     74% 0.00in /  0mm 0 W/m2
03:54 22.3 °F /  -5.4 °C 15.2 °F /  -9.3 °C 30.32in /  1026.6hPa Calm     73.9% 0.00in /  0mm 0 W/m2
03:59 22.4 °F /  -5.3 °C 15.2 °F /  -9.3 °C 30.31in /  1026.3hPa Calm     73.3% 0.00in /  0mm 0 W/m2
04:04 22.5 °F /  -5.3 °C 15.3 °F /  -9.3 °C 30.31in /  1026.3hPa Calm     73.5% 0.00in /  0mm 0 W/m2
04:09 22.5 °F /  -5.3 °C 15.5 °F /  -9.2 °C 30.31in /  1026.3hPa Calm     74% 0.00in /  0mm 0 W/m2
04:14 22.6 °F /  -5.2 °C 15.5 °F /  -9.2 °C 30.31in /  1026.3hPa Calm     74% 0.00in /  0mm 0 W/m2
04:19 22.6 °F /  -5.2 °C 15.6 °F /  -9.1 °C 30.31in /  1026.3hPa Calm     74% 0.00in /  0mm 0 W/m2
04:24 22.6 °F /  -5.2 °C 15.6 °F /  -9.1 °C 30.31in /  1026.3hPa Calm     74% 0.00in /  0mm 0 W/m2
04:29 22.6 °F /  -5.2 °C 15.5 °F /  -9.2 °C 30.31in /  1026.3hPa Calm     73.8% 0.00in /  0mm 0 W/m2
04:34 22.7 °F /  -5.2 °C 15.7 °F /  -9.1 °C 30.30in /  1026hPa Calm     74% 0.00in /  0mm 0 W/m2
04:39 22.9 °F /  -5.1 °C 15.8 °F /  -9 °C 30.30in /  1026hPa Calm     74% 0.00in /  0mm 0 W/m2
04:44 23 °F /  -5 °C 16 °F /  -8.9 °C 30.29in /  1025.6hPa Calm     74% 0.00in /  0mm 0 W/m2
04:49 23.2 °F /  -4.9 °C 16.2 °F /  -8.8 °C 30.29in /  1025.6hPa Calm     74% 0.00in /  0mm 0 W/m2
04:54 23.4 °F /  -4.8 °C 16.4 °F /  -8.7 °C 30.29in /  1025.6hPa Calm     74% 0.00in /  0mm 0 W/m2
04:59 23.6 °F /  -4.7 °C 16.5 °F /  -8.6 °C 30.29in /  1025.6hPa Calm     74% 0.00in /  0mm 0 W/m2
05:04 23.7 °F /  -4.6 °C 16.6 °F /  -8.6 °C 30.29in /  1025.6hPa Calm     74% 0.00in /  0mm 0 W/m2
05:09 23.8 °F /  -4.6 °C 16.8 °F /  -8.4 °C 30.28in /  1025.3hPa Calm     74.4% 0.00in /  0mm 0 W/m2
05:14 23.9 °F /  -4.5 °C 17.1 °F /  -8.3 °C 30.28in /  1025.3hPa Calm     75% 0.00in /  0mm 0 W/m2
05:19 24 °F /  -4.4 °C 17.4 °F /  -8.1 °C 30.27in /  1024.9hPa Calm     75.5% 0.00in /  0mm 0 W/m2
05:24 24.1 °F /  -4.4 °C 17.4 °F /  -8.1 °C 30.27in /  1024.9hPa Calm     75% 0.00in /  0mm 0 W/m2
05:29 24.3 °F /  -4.3 °C 17.5 °F /  -8.1 °C 30.27in /  1024.9hPa Calm     74.7% 0.00in /  0mm 0 W/m2
05:34 24.5 °F /  -4.2 °C 17.4 °F /  -8.1 °C 30.26in /  1024.6hPa Calm     74% 0.00in /  0mm 0 W/m2
05:39 24.6 °F /  -4.1 °C 17.5 °F /  -8.1 °C 30.26in /  1024.6hPa Calm     74% 0.00in /  0mm 0 W/m2
05:44 24.7 °F /  -4.1 °C 17.6 °F /  -8 °C 30.26in /  1024.6hPa Calm     74% 0.00in /  0mm 0 W/m2
05:49 24.8 °F /  -4 °C 17.9 °F /  -7.8 °C 30.27in /  1024.9hPa Calm     74.8% 0.00in /  0mm 0 W/m2
05:54 24.8 °F /  -4 °C 18 °F /  -7.8 °C 30.27in /  1024.9hPa Calm     75% 0.00in /  0mm 0 W/m2
05:59 24.8 °F /  -4 °C 18 °F /  -7.8 °C 30.26in /  1024.6hPa Calm     75% 0.00in /  0mm 0 W/m2
06:04 24.8 °F /  -4 °C 18 °F /  -7.8 °C 30.26in /  1024.6hPa Calm     75% 0.00in /  0mm 0 W/m2
06:09 24.7 °F /  -4.1 °C 17.9 °F /  -7.8 °C 30.26in /  1024.6hPa Calm     75% 0.00in /  0mm 0 W/m2
06:14 24.7 °F /  -4.1 °C 17.7 °F /  -7.9 °C 30.26in /  1024.6hPa Calm     74.3% 0.00in /  0mm 0 W/m2
06:19 24.7 °F /  -4.1 °C 17.9 °F /  -7.8 °C 30.26in /  1024.6hPa Calm     75% 0.00in /  0mm 0 W/m2
06:24 24.8 °F /  -4 °C 18.1 °F /  -7.7 °C 30.25in /  1024.3hPa Calm     75.3% 0.00in /  0mm 0 W/m2
06:29 25 °F /  -3.9 °C 18.5 °F /  -7.5 °C 30.25in /  1024.3hPa Calm     76% 0.00in /  0mm 0 W/m2
06:34 25.2 °F /  -3.8 °C 18.9 °F /  -7.3 °C 30.25in /  1024.3hPa Calm     76.5% 0.00in /  0mm 0 W/m2
06:39 25.3 °F /  -3.7 °C 18.9 °F /  -7.3 °C 30.25in /  1024.3hPa Calm     76% 0.00in /  0mm 0 W/m2
06:44 25.4 °F /  -3.7 °C 18.9 °F /  -7.3 °C 30.25in /  1024.3hPa Calm     76% 0.00in /  0mm 0 W/m2
06:49 25.5 °F /  -3.6 °C 19 °F /  -7.2 °C 30.25in /  1024.3hPa Calm     76% 0.00in /  0mm 0 W/m2
06:54 25.6 °F /  -3.6 °C 19.1 °F /  -7.2 °C 30.24in /  1023.9hPa Calm     76% 0.00in /  0mm 7 W/m2
06:59 25.7 °F /  -3.5 °C 19.4 °F /  -7 °C 30.25in /  1024.3hPa Calm     76.8% 0.00in /  0mm 11 W/m2
07:04 25.8 °F /  -3.4 °C 19.6 °F /  -6.9 °C 30.25in /  1024.3hPa Calm     77% 0.00in /  0mm 14 W/m2
07:09 25.8 °F /  -3.4 °C 19.6 °F /  -6.9 °C 30.24in /  1023.9hPa Calm     77% 0.00in /  0mm 16 W/m2
07:14 26 °F /  -3.3 °C 19.8 °F /  -6.8 °C 30.24in /  1023.9hPa Calm     77.1% 0.00in /  0mm 23 W/m2
07:19 26.1 °F /  -3.3 °C 20.2 °F /  -6.6 °C 30.24in /  1023.9hPa Calm     78% 0.00in /  0mm 25 W/m2
07:24 26.2 °F /  -3.2 °C 20.1 °F /  -6.6 °C 30.23in /  1023.6hPa Calm     77.2% 0.00in /  0mm 30 W/m2
07:29 26.3 °F /  -3.2 °C 20.1 °F /  -6.6 °C 30.23in /  1023.6hPa Calm     77% 0.00in /  0mm 32 W/m2
07:34 26.5 °F /  -3.1 °C 20.3 °F /  -6.5 °C 30.23in /  1023.6hPa Calm     77% 0.00in /  0mm 44 W/m2
07:39 26.7 °F /  -2.9 °C 20.4 °F /  -6.4 °C 30.23in /  1023.6hPa Calm     77% 0.00in /  0mm 49 W/m2
07:44 26.9 °F /  -2.8 °C 20.7 °F /  -6.3 °C 30.23in /  1023.6hPa Calm     77% 0.00in /  0mm 47 W/m2
07:49 27.2 °F /  -2.7 °C 20.9 °F /  -6.2 °C 30.22in /  1023.2hPa Calm     77% 0.00in /  0mm 49 W/m2
07:54 27.5 °F /  -2.5 °C 21.2 °F /  -6 °C 30.22in /  1023.2hPa Calm     77% 0.00in /  0mm 60 W/m2
07:59 27.7 °F /  -2.4 °C 21.3 °F /  -5.9 °C 30.22in /  1023.2hPa Calm     76.5% 0.00in /  0mm 84 W/m2
08:00 27.8 °F /  -2.3 °C 21.2 °F /  -6 °C 30.21in /  1022.9hPa Calm     76% 0.00in /  0mm 84 W/m2
08:09 28.2 °F /  -2.1 °C 21.6 °F /  -5.8 °C 30.21in /  1022.9hPa Calm     75.9% 0.00in /  0mm 95 W/m2
08:14 28.4 °F /  -2 °C 21.5 °F /  -5.8 °C 30.21in /  1022.9hPa Calm     75% 0.00in /  0mm 104 W/m2
08:19 28.6 °F /  -1.9 °C 21.6 °F /  -5.8 °C 30.21in /  1022.9hPa Calm     74.9% 0.00in /  0mm 105 W/m2
08:24 28.8 °F /  -1.8 °C 21.5 °F /  -5.8 °C 30.21in /  1022.9hPa Calm     74% 0.00in /  0mm 163 W/m2
08:29 29 °F /  -1.7 °C 21.8 °F /  -5.7 °C 30.21in /  1022.9hPa Calm     74% 0.00in /  0mm 155 W/m2
08:34 29.4 °F /  -1.4 °C 22.3 °F /  -5.4 °C 30.20in /  1022.6hPa Calm     74.5% 0.00in /  0mm 162 W/m2
08:39 29.8 °F /  -1.2 °C 22.6 °F /  -5.2 °C 30.20in /  1022.6hPa Calm     74.3% 0.00in /  0mm 156 W/m2
08:44 30.2 °F /  -1 °C 22.8 °F /  -5.1 °C 30.20in /  1022.6hPa Calm     73.7% 0.00in /  0mm 148 W/m2
08:49 30.4 °F /  -0.9 °C 22.8 °F /  -5.1 °C 30.19in /  1022.2hPa Calm     73% 0.00in /  0mm 220 W/m2
08:54 30.8 °F /  -0.7 °C 23.3 °F /  -4.8 °C 30.19in /  1022.2hPa West 0.3mph /  0.5km/h 2mph /  3.2km/h 73.6% 0.00in /  0mm 211 W/m2
08:59 31.2 °F /  -0.4 °C 23.9 °F /  -4.5 °C 30.19in /  1022.2hPa Calm   2mph /  3.2km/h 74% 0.00in /  0mm 185 W/m2
09:04 31.7 °F /  -0.2 °C 24.3 °F /  -4.3 °C 30.18in /  1021.9hPa Calm   2mph /  3.2km/h 73.8% 0.00in /  0mm 190 W/m2
09:09 32.2 °F /  0.1 °C 24.9 °F /  -3.9 °C 30.18in /  1021.9hPa West 0.4mph /  0.6km/h 3mph /  4.8km/h 74% 0.00in /  0mm 153 W/m2
09:14 32.6 °F /  0.3 °C 25.1 °F /  -3.8 °C 30.18in /  1021.9hPa West 0.2mph /  0.3km/h 3mph /  4.8km/h 73.5% 0.00in /  0mm 132 W/m2
09:19 32.9 °F /  0.5 °C 25.2 °F /  -3.8 °C 30.17in /  1021.6hPa WSW 0.7mph /  1.1km/h 4mph /  6.4km/h 73% 0.00in /  0mm 149 W/m2
09:24 33.3 °F /  0.7 °C 25.3 °F /  -3.7 °C 30.17in /  1021.6hPa SW 1mph /  1.6km/h 5mph /  8km/h 72.2% 0.00in /  0mm 146 W/m2
09:29 33.5 °F /  0.8 °C 25.5 °F /  -3.6 °C 30.17in /  1021.6hPa Calm   5mph /  8km/h 72% 0.00in /  0mm 139 W/m2
09:34 33.8 °F /  1 °C 25.5 °F /  -3.6 °C 30.17in /  1021.6hPa SSW 0.6mph /  1km/h 5mph /  8km/h 71.4% 0.00in /  0mm 149 W/m2
09:39 33.9 °F /  1.1 °C 25.6 °F /  -3.6 °C 30.16in /  1021.2hPa SSW 0.3mph /  0.5km/h 5mph /  8km/h 71.2% 0.00in /  0mm 213 W/m2
09:44 34.2 °F /  1.2 °C 26.1 °F /  -3.3 °C 30.16in /  1021.2hPa SSW 0.1mph /  0.2km/h 5mph /  8km/h 72% 0.00in /  0mm 216 W/m2
09:49 34.6 °F /  1.4 °C 26.5 °F /  -3.1 °C 30.15in /  1020.9hPa SSW 0.1mph /  0.2km/h 5mph /  8km/h 72% 0.00in /  0mm 216 W/m2
09:54 34.9 °F /  1.6 °C 26.8 °F /  -2.9 °C 30.15in /  1020.9hPa SSW 0.6mph /  1km/h 5mph /  8km/h 72% 0.00in /  0mm 239 W/m2
09:59 35.4 °F /  1.9 °C 27.1 °F /  -2.7 °C 30.15in /  1020.9hPa SSW 0.7mph /  1.1km/h 5mph /  8km/h 71.5% 0.00in /  0mm 216 W/m2
10:04 35.7 °F /  2.1 °C 27.2 °F /  -2.7 °C 30.15in /  1020.9hPa SSW 1.2mph /  1.9km/h 6mph /  9.7km/h 71% 0.00in /  0mm 197 W/m2
10:09 36 °F /  2.2 °C 27.5 °F /  -2.5 °C 30.14in /  1020.5hPa SW 1.8mph /  2.9km/h 6mph /  9.7km/h 71% 0.00in /  0mm 176 W/m2
10:14 36.2 °F /  2.3 °C 27.7 °F /  -2.4 °C 30.14in /  1020.5hPa SSW 1.6mph /  2.6km/h 6mph /  9.7km/h 71% 0.00in /  0mm 258 W/m2
10:19 36.5 °F /  2.5 °C 28 °F /  -2.2 °C 30.13in /  1020.2hPa SSW 1.8mph /  2.9km/h 6mph /  9.7km/h 71% 0.00in /  0mm 271 W/m2
10:24 36.8 °F /  2.7 °C 28.3 °F /  -2.1 °C 30.12in /  1019.9hPa SW 1.2mph /  1.9km/h 6mph /  9.7km/h 71% 0.00in /  0mm 269 W/m2
10:29 37.1 °F /  2.8 °C 28.6 °F /  -1.9 °C 30.12in /  1019.9hPa SSW 0.8mph /  1.3km/h 6mph /  9.7km/h 71% 0.00in /  0mm 297 W/m2
10:34 37.4 °F /  3 °C 28.8 °F /  -1.8 °C 30.12in /  1019.9hPa SSW 0.7mph /  1.1km/h 6mph /  9.7km/h 71% 0.00in /  0mm 269 W/m2
10:39 37.7 °F /  3.2 °C 29.1 °F /  -1.6 °C 30.12in /  1019.9hPa SSW 1.8mph /  2.9km/h 6mph /  9.7km/h 71% 0.00in /  0mm 269 W/m2
10:44 37.9 °F /  3.3 °C 29.3 °F /  -1.5 °C 30.11in /  1019.5hPa South 0.7mph /  1.1km/h 6mph /  9.7km/h 71% 0.00in /  0mm 258 W/m2
10:49 38 °F /  3.3 °C 29.5 °F /  -1.4 °C 30.10in /  1019.2hPa SSW 0.9mph /  1.4km/h 6mph /  9.7km/h 71% 0.00in /  0mm 287 W/m2
10:54 38.2 °F /  3.4 °C 29.6 °F /  -1.3 °C 30.09in /  1018.8hPa South 2.9mph /  4.7km/h 10mph /  16.1km/h 70.8% 0.00in /  0mm 287 W/m2
10:59 38.3 °F /  3.5 °C 29.7 °F /  -1.3 °C 30.08in /  1018.5hPa South 1.6mph /  2.6km/h 10mph /  16.1km/h 70.7% 0.00in /  0mm 274 W/m2
11:04 38.4 °F /  3.6 °C 29.9 °F /  -1.2 °C 30.07in /  1018.2hPa South 1.7mph /  2.7km/h 10mph /  16.1km/h 71% 0.00in /  0mm 281 W/m2
11:09 38.6 °F /  3.7 °C 30 °F /  -1.1 °C 30.06in /  1017.8hPa South 1.5mph /  2.4km/h 7mph /  11.3km/h 71% 0.00in /  0mm 330 W/m2
11:14 38.8 °F /  3.8 °C 29.8 °F /  -1.2 °C 30.06in /  1017.8hPa South 4.2mph /  6.8km/h 15mph /  24.1km/h 70% 0.00in /  0mm 322 W/m2
11:19 38.8 °F /  3.8 °C 29.9 °F /  -1.2 °C 30.06in /  1017.8hPa South 1.4mph /  2.3km/h 15mph /  24.1km/h 70% 0.00in /  0mm 283 W/m2
11:24 38.9 °F /  3.8 °C 30.3 °F /  -0.9 °C 30.06in /  1017.8hPa South 2.7mph /  4.3km/h 15mph /  24.1km/h 71% 0.00in /  0mm 265 W/m2
11:29 39.1 °F /  3.9 °C 30.4 °F /  -0.9 °C 30.05in /  1017.5hPa South 4mph /  6.4km/h 15mph /  24.1km/h 70.8% 0.00in /  0mm 294 W/m2
11:34 39.1 °F /  3.9 °C 30.3 °F /  -0.9 °C 30.05in /  1017.5hPa South 5.1mph /  8.2km/h 15mph /  24.1km/h 70.4% 0.00in /  0mm 236 W/m2
11:39 39.2 °F /  4 °C 30.6 °F /  -0.8 °C 30.05in /  1017.5hPa SSW 3.5mph /  5.6km/h 11mph /  17.7km/h 71% 0.00in /  0mm 243 W/m2
11:44 39.3 °F /  4.1 °C 30.7 °F /  -0.7 °C 30.04in /  1017.2hPa SSW 3.7mph /  6km/h 11mph /  17.7km/h 71% 0.00in /  0mm 229 W/m2
11:49 39.5 °F /  4.2 °C 30.9 °F /  -0.6 °C 30.03in /  1016.8hPa South 2.8mph /  4.5km/h 11mph /  17.7km/h 71% 0.01in /  0.25mm 204 W/m2
11:54 39.6 °F /  4.2 °C 31 °F /  -0.6 °C 30.03in /  1016.8hPa SSW 3.4mph /  5.5km/h 11mph /  17.7km/h 71% 0.01in /  0.25mm 227 W/m2
11:59 39.7 °F /  4.3 °C 31 °F /  -0.6 °C 30.02in /  1016.5hPa South 5mph /  8km/h 13mph /  20.9km/h 70.7% 0.02in /  0.51mm 223 W/m2
12:09 40 °F /  4.4 °C 30.7 °F /  -0.7 °C 30.02in /  1016.5hPa South 5mph /  8km/h 14mph /  22.5km/h 69% 0.02in /  0.51mm 232 W/m2
12:14 40.1 °F /  4.5 °C 30.8 °F /  -0.7 °C 30.02in /  1016.5hPa South 5.7mph /  9.2km/h 16mph /  25.7km/h 69% 0.02in /  0.51mm 227 W/m2
12:19 40.2 °F /  4.6 °C 30.9 °F /  -0.6 °C 30.01in /  1016.1hPa South 3.7mph /  6km/h 16mph /  25.7km/h 69% 0.02in /  0.51mm 190 W/m2
12:24 40.2 °F /  4.6 °C 30.9 °F /  -0.6 °C 30.01in /  1016.1hPa South 3.9mph /  6.3km/h 16mph /  25.7km/h 69% 0.02in /  0.51mm 149 W/m2
12:29 40.2 °F /  4.6 °C 30.9 °F /  -0.6 °C 29.99in /  1015.5hPa South 2.6mph /  4.2km/h 16mph /  25.7km/h 69% 0.03in /  0.76mm 142 W/m2
12:34 40.1 °F /  4.5 °C 30.8 °F /  -0.7 °C 29.99in /  1015.5hPa South 4.1mph /  6.6km/h 16mph /  25.7km/h 69.2% 0.03in /  0.76mm 102 W/m2
12:39 39.9 °F /  4.4 °C 31.2 °F /  -0.4 °C 29.98in /  1015.1hPa SSW 5.6mph /  9km/h 12mph /  19.3km/h 70.8% 0.03in /  0.76mm 120 W/m2
12:44 39.5 °F /  4.2 °C 32 °F /  0 °C 29.98in /  1015.1hPa SSW 3mph /  4.8km/h 12mph /  19.3km/h 74.1% 0.03in /  0.76mm 120 W/m2
12:49 39 °F /  3.9 °C 32.3 °F /  0.2 °C 29.98in /  1015.1hPa South 4.9mph /  7.9km/h 12mph /  19.3km/h 76.6% 0.03in /  0.76mm 83 W/m2
12:54 38.5 °F /  3.6 °C 32.6 °F /  0.3 °C 29.97in /  1014.8hPa South 3.8mph /  6.1km/h 12mph /  19.3km/h 79.1% 0.03in /  0.76mm 120 W/m2
12:59 38.1 °F /  3.4 °C 32.9 °F /  0.5 °C 29.97in /  1014.8hPa SSW 2.4mph /  3.9km/h 12mph /  19.3km/h 81.3% 0.03in /  0.76mm 111 W/m2
13:04 37.8 °F /  3.2 °C 33.1 °F /  0.6 °C 29.96in /  1014.4hPa SSW 1.1mph /  1.8km/h 12mph /  19.3km/h 83% 0.03in /  0.76mm 88 W/m2
13:09 37.5 °F /  3.1 °C 33.3 °F /  0.7 °C 29.95in /  1014.1hPa South 2.6mph /  4.2km/h 7mph /  11.3km/h 84.5% 0.01in /  0.25mm 98 W/m2
13:14 37.3 °F /  2.9 °C 33.4 °F /  0.8 °C 29.95in /  1014.1hPa South 0.7mph /  1.1km/h 7mph /  11.3km/h 85.7% 0.01in /  0.25mm 100 W/m2
13:19 37 °F /  2.8 °C 33.4 °F /  0.8 °C 29.94in /  1013.8hPa South 2mph /  3.2km/h 7mph /  11.3km/h 86.7% 0.01in /  0.25mm 91 W/m2
13:24 36.9 °F /  2.7 °C 33.5 °F /  0.8 °C 29.93in /  1013.4hPa South 0.7mph /  1.1km/h 7mph /  11.3km/h 87.6% 0.02in /  0.51mm 100 W/m2
13:29 36.7 °F /  2.6 °C 33.6 °F /  0.9 °C 29.92in /  1013.1hPa South 1.6mph /  2.6km/h 7mph /  11.3km/h 88.2% 0.02in /  0.51mm 77 W/m2
13:34 36.6 °F /  2.6 °C 33.7 °F /  0.9 °C 29.92in /  1013.1hPa South 0.6mph /  1km/h 7mph /  11.3km/h 89% 0.02in /  0.51mm 91 W/m2
13:39 36.6 °F /  2.6 °C 33.8 °F /  1 °C 29.91in /  1012.8hPa South 0.9mph /  1.4km/h 9mph /  14.5km/h 89.4% 0.02in /  0.51mm 88 W/m2
13:44 36.6 °F /  2.6 °C 33.9 °F /  1.1 °C 29.90in /  1012.4hPa South 1.7mph /  2.7km/h 9mph /  14.5km/h 90% 0.03in /  0.76mm 79 W/m2
13:49 36.6 °F /  2.6 °C 33.9 °F /  1.1 °C 29.89in /  1012.1hPa South 0.1mph /  0.2km/h 9mph /  14.5km/h 90% 0.03in /  0.76mm 70 W/m2
13:54 36.6 °F /  2.6 °C 34.1 °F /  1.2 °C 29.89in /  1012.1hPa Calm   9mph /  14.5km/h 90.6% 0.03in /  0.76mm 77 W/m2
13:59 36.5 °F /  2.5 °C 34.1 °F /  1.2 °C 29.88in /  1011.7hPa South 0.4mph /  0.6km/h 9mph /  14.5km/h 91% 0.04in /  1.02mm 88 W/m2
14:04 36.4 °F /  2.4 °C 34 °F /  1.1 °C 29.88in /  1011.7hPa Calm   9mph /  14.5km/h 91% 0.04in /  1.02mm 65 W/m2
14:09 36.2 °F /  2.3 °C 33.9 °F /  1.1 °C 29.88in /  1011.7hPa Calm   1mph /  1.6km/h 91% 0.04in /  1.02mm 54 W/m2
14:14 36.1 °F /  2.3 °C 33.7 °F /  0.9 °C 29.87in /  1011.4hPa South 0.3mph /  0.5km/h 2mph /  3.2km/h 91% 0.05in /  1.27mm 60 W/m2
14:19 35.9 °F /  2.2 °C 33.6 °F /  0.9 °C 29.87in /  1011.4hPa Calm   2mph /  3.2km/h 91% 0.05in /  1.27mm 49 W/m2
14:24 35.7 °F /  2.1 °C 33.4 °F /  0.8 °C 29.86in /  1011.1hPa Calm   2mph /  3.2km/h 91% 0.05in /  1.27mm 54 W/m2
14:29 35.6 °F /  2 °C 33.4 °F /  0.8 °C 29.86in /  1011.1hPa Calm   2mph /  3.2km/h 91.8% 0.05in /  1.27mm 56 W/m2
14:34 35.4 °F /  1.9 °C 33.3 °F /  0.7 °C 29.85in /  1010.7hPa Calm   2mph /  3.2km/h 91.9% 0.05in /  1.27mm 47 W/m2
14:39 35.3 °F /  1.8 °C 33.2 °F /  0.7 °C 29.84in /  1010.4hPa Calm     92% 0.03in /  0.76mm 58 W/m2
14:44 35.2 °F /  1.8 °C 33.1 °F /  0.6 °C 29.84in /  1010.4hPa Calm   1mph /  1.6km/h 92% 0.04in /  1.02mm 63 W/m2
14:49 35.1 °F /  1.7 °C 33 °F /  0.6 °C 29.83in /  1010hPa Calm   1mph /  1.6km/h 92% 0.04in /  1.02mm 49 W/m2
14:54 35 °F /  1.7 °C 32.9 °F /  0.5 °C 29.83in /  1010hPa Calm   1mph /  1.6km/h 92% 0.04in /  1.02mm 42 W/m2
14:59 34.9 °F /  1.6 °C 32.8 °F /  0.4 °C 29.83in /  1010hPa Calm   1mph /  1.6km/h 92% 0.04in /  1.02mm 40 W/m2
15:04 34.8 °F /  1.6 °C 32.8 °F /  0.4 °C 29.82in /  1009.7hPa Calm   1mph /  1.6km/h 92.4% 0.04in /  1.02mm 39 W/m2
15:09 34.7 °F /  1.5 °C 32.6 °F /  0.3 °C 29.81in /  1009.4hPa Calm     92% 0.02in /  0.51mm 35 W/m2
15:14 34.6 °F /  1.4 °C 32.8 °F /  0.4 °C 29.81in /  1009.4hPa Calm     92.9% 0.02in /  0.51mm 32 W/m2
15:19 34.6 °F /  1.4 °C 32.8 °F /  0.4 °C 29.80in /  1009hPa Calm     93% 0.02in /  0.51mm 32 W/m2
15:24 34.5 °F /  1.4 °C 32.7 °F /  0.4 °C 29.79in /  1008.7hPa Calm     93% 0.02in /  0.51mm 32 W/m2
15:29 34.5 °F /  1.4 °C 32.7 °F /  0.4 °C 29.78in /  1008.4hPa Calm     93% 0.02in /  0.51mm 35 W/m2
15:34 34.5 °F /  1.4 °C 32.7 °F /  0.4 °C 29.77in /  1008hPa Calm     93% 0.02in /  0.51mm 33 W/m2
15:39 34.6 °F /  1.4 °C 32.8 °F /  0.4 °C 29.77in /  1008hPa Calm     93% 0.01in /  0.25mm 21 W/m2
15:44 34.6 °F /  1.4 °C 32.8 °F /  0.4 °C 29.77in /  1008hPa Calm     93% 0.02in /  0.51mm 18 W/m2
15:49 34.7 °F /  1.5 °C 32.9 °F /  0.5 °C 29.76in /  1007.7hPa Calm     93% 0.03in /  0.76mm 14 W/m2
15:54 34.7 °F /  1.5 °C 32.9 °F /  0.5 °C 29.75in /  1007.3hPa Calm     93.2% 0.04in /  1.02mm 14 W/m2
15:59 34.7 °F /  1.5 °C 33 °F /  0.6 °C 29.75in /  1007.3hPa Calm     93.2% 0.06in /  1.52mm 16 W/m2
16:00 34.7 °F /  1.5 °C 32.9 °F /  0.5 °C 29.74in /  1007hPa Calm     93% 0.06in /  1.52mm 11 W/m2
16:09 34.7 °F /  1.5 °C 33.2 °F /  0.7 °C 29.73in /  1006.7hPa Calm     94% 0.07in /  1.78mm 19 W/m2
16:14 34.8 °F /  1.6 °C 33.2 °F /  0.7 °C 29.72in /  1006.3hPa Calm     93.9% 0.08in /  2.03mm 18 W/m2
16:19 34.8 °F /  1.6 °C 33.2 °F /  0.7 °C 29.71in /  1006hPa Calm     93.6% 0.09in /  2.29mm 16 W/m2
16:24 34.9 °F /  1.6 °C 33.3 °F /  0.7 °C 29.71in /  1006hPa Calm     94% 0.10in /  2.54mm 12 W/m2
16:29 34.9 °F /  1.6 °C 33.3 °F /  0.7 °C 29.71in /  1006hPa Calm     94% 0.11in /  2.79mm 11 W/m2
16:34 34.9 °F /  1.6 °C 33.3 °F /  0.7 °C 29.70in /  1005.6hPa Calm     94% 0.13in /  3.3mm 11 W/m2
16:39 34.8 °F /  1.6 °C 33.3 °F /  0.7 °C 29.70in /  1005.6hPa Calm     94% 0.14in /  3.56mm 9 W/m2
16:44 34.8 °F /  1.6 °C 33.3 °F /  0.7 °C 29.70in /  1005.6hPa Calm     94% 0.15in /  3.81mm 7 W/m2
16:49 34.8 °F /  1.6 °C 33.3 °F /  0.7 °C 29.69in /  1005.3hPa Calm     94% 0.16in /  4.06mm 7 W/m2
16:54 34.8 °F /  1.6 °C 33.3 °F /  0.7 °C 29.69in /  1005.3hPa Calm     94% 0.17in /  4.32mm 7 W/m2
16:59 34.8 °F /  1.6 °C 33.3 °F /  0.7 °C 29.69in /  1005.3hPa Calm     94% 0.18in /  4.57mm 5 W/m2
17:04 34.8 °F /  1.6 °C 33.3 °F /  0.7 °C 29.68in /  1005hPa Calm     94% 0.18in /  4.57mm 0 W/m2
17:09 34.8 °F /  1.6 °C 33.3 °F /  0.7 °C 29.68in /  1005hPa Calm     94% 0.14in /  3.56mm 0 W/m2
17:14 34.8 °F /  1.6 °C 33.3 °F /  0.7 °C 29.68in /  1005hPa Calm     94% 0.14in /  3.56mm 0 W/m2
17:19 34.8 °F /  1.6 °C 33.3 °F /  0.7 °C 29.67in /  1004.6hPa Calm     94% 0.15in /  3.81mm 0 W/m2
17:24 34.8 °F /  1.6 °C 33.3 °F /  0.7 °C 29.67in /  1004.6hPa Calm     94% 0.16in /  4.06mm 0 W/m2
17:29 34.8 °F /  1.6 °C 33.3 °F /  0.7 °C 29.67in /  1004.6hPa Calm     94% 0.16in /  4.06mm 0 W/m2
17:34 34.8 °F /  1.6 °C 33.3 °F /  0.7 °C 29.67in /  1004.6hPa Calm     94% 0.16in /  4.06mm 0 W/m2
17:39 34.8 °F /  1.6 °C 33.3 °F /  0.7 °C 29.66in /  1004.3hPa Calm     94% 0.11in /  2.79mm 0 W/m2
17:44 34.8 °F /  1.6 °C 33.3 °F /  0.7 °C 29.66in /  1004.3hPa Calm     94% 0.12in /  3.05mm 0 W/m2
17:49 34.9 °F /  1.6 °C 33.3 °F /  0.7 °C 29.66in /  1004.3hPa Calm     94% 0.12in /  3.05mm 0 W/m2
17:54 35 °F /  1.7 °C 33.4 °F /  0.8 °C 29.66in /  1004.3hPa Calm     94% 0.13in /  3.3mm 0 W/m2
17:59 35.1 °F /  1.7 °C 33.5 °F /  0.8 °C 29.66in /  1004.3hPa Calm     94% 0.13in /  3.3mm 0 W/m2
18:04 35.2 °F /  1.8 °C 33.8 °F /  1 °C 29.65in /  1003.9hPa Calm     94.4% 0.13in /  3.3mm 0 W/m2
18:09 35.6 °F /  2 °C 34.3 °F /  1.3 °C 29.65in /  1003.9hPa Calm     94.8% 0.07in /  1.78mm 0 W/m2
18:14 36.1 °F /  2.3 °C 34.8 °F /  1.6 °C 29.65in /  1003.9hPa Calm     95% 0.07in /  1.78mm 0 W/m2
18:19 36.5 °F /  2.5 °C 35.2 °F /  1.8 °C 29.65in /  1003.9hPa Calm     95% 0.07in /  1.78mm 0 W/m2
18:24 36.7 °F /  2.6 °C 35.8 °F /  2.1 °C 29.65in /  1003.9hPa Calm     96.6% 0.07in /  1.78mm 0 W/m2
18:29 36.8 °F /  2.7 °C 35.5 °F /  1.9 °C 29.64in /  1003.6hPa SSW 0.3mph /  0.5km/h 4mph /  6.4km/h 95% 0.07in /  1.78mm 0 W/m2
18:34 37 °F /  2.8 °C 35.7 °F /  2.1 °C 29.64in /  1003.6hPa SW 1mph /  1.6km/h 9mph /  14.5km/h 95% 0.07in /  1.78mm 0 W/m2
18:39 37.4 °F /  3 °C 36.1 °F /  2.3 °C 29.64in /  1003.6hPa SW 0.2mph /  0.3km/h 9mph /  14.5km/h 95% 0.05in /  1.27mm 0 W/m2
18:44 37.6 °F /  3.1 °C 36.3 °F /  2.4 °C 29.64in /  1003.6hPa SW 0.3mph /  0.5km/h 9mph /  14.5km/h 95% 0.05in /  1.27mm 0 W/m2
18:49 37.9 °F /  3.3 °C 36.6 °F /  2.6 °C 29.63in /  1003.3hPa WSW 1.3mph /  2.1km/h 11mph /  17.7km/h 95% 0.05in /  1.27mm 0 W/m2
18:54 38 °F /  3.3 °C 36.7 °F /  2.6 °C 29.63in /  1003.3hPa WSW 0.9mph /  1.4km/h 11mph /  17.7km/h 95% 0.05in /  1.27mm 0 W/m2
18:59 38.1 °F /  3.4 °C 36.8 °F /  2.7 °C 29.62in /  1002.9hPa SW 0.8mph /  1.3km/h 11mph /  17.7km/h 95% 0.05in /  1.27mm 0 W/m2
19:04 38 °F /  3.3 °C 36.7 °F /  2.6 °C 29.63in /  1003.3hPa SW 1.5mph /  2.4km/h 11mph /  17.7km/h 95% 0.05in /  1.27mm 0 W/m2
19:09 38 °F /  3.3 °C 36.7 °F /  2.6 °C 29.63in /  1003.3hPa West 0.9mph /  1.4km/h 11mph /  17.7km/h 95% 0.02in /  0.51mm 0 W/m2
19:14 37.9 °F /  3.3 °C 36.6 °F /  2.6 °C 29.63in /  1003.3hPa WSW 1mph /  1.6km/h 11mph /  17.7km/h 95% 0.02in /  0.51mm 0 W/m2
19:19 37.8 °F /  3.2 °C 36.5 °F /  2.5 °C 29.63in /  1003.3hPa Calm   11mph /  17.7km/h 95% 0.02in /  0.51mm 0 W/m2
19:24 37.7 °F /  3.2 °C 36.4 °F /  2.4 °C 29.62in /  1002.9hPa SW 1.2mph /  1.9km/h 12mph /  19.3km/h 95% 0.02in /  0.51mm 0 W/m2
19:28 37.7 °F /  3.2 °C 36.4 °F /  2.4 °C 29.62in /  1002.9hPa SW 0.3mph /  0.5km/h 12mph /  19.3km/h 95% 0.03in /  0.76mm 0 W/m2
Hartford County Weather
Compliments of Weather Underground - 2 mb